N7WWK-1 Weather Reports


Display with metric or nautical units.
time (UTC)temp
F
wind
direction
speed
MPH
gust
MPH
rain 1hr
in
rain 24hr
in
rain mn
in
humidity
%
barometer
mb
20191121231739 62 0 0.0 0.0 0.00 0.00 0.00 76 1015.1
20191121230839 63 0 0.0 0.0 0.00 0.00 0.00 75 1015.1
20191121225940 63 0 0.0 0.0 0.00 0.00 0.00 75 1015.1
20191121225039 64 0 0.0 0.0 0.00 0.00 0.00 74 1015.1
20191121224139 64 0 0.0 0.0 0.00 0.00 0.00 73 1015.1
20191121223239 65 0 0.0 0.0 0.00 0.00 0.00 73 1014.8
20191121222339 65 0 0.0 0.0 0.00 0.00 0.00 72 1014.8
20191121221439 65 0 0.0 0.0 0.00 0.00 0.00 71 1014.8
20191121220539 66 0 0.0 0.0 0.00 0.00 0.00 70 1014.8
20191121215639 66 0 0.0 0.0 0.00 0.00 0.00 69 1014.8
20191121214739 67 0 0.0 0.0 0.00 0.00 0.00 69 1014.8
20191121213839 67 0 0.0 0.0 0.00 0.00 0.00 68 1014.8
20191121212939 68 0 0.0 0.0 0.00 0.00 0.00 67 1014.8
20191121212039 68 0 0.0 0.0 0.00 0.00 0.00 67 1014.8
20191121211140 69 0 0.0 0.0 0.00 0.00 0.00 66 1014.8
20191121210239 69 0 0.0 0.0 0.00 0.00 0.00 65 1014.4
20191121205339 70 0 0.0 0.0 0.00 0.00 0.00 64 1014.4
20191121204439 70 0 0.0 0.0 0.00 0.00 0.00 63 1014.4
20191121203539 71 0 0.0 0.0 0.00 0.00 0.00 62 1014.4
20191121202639 72 0 0.0 0.0 0.00 0.00 0.00 61 1014.4
20191121201739 73 0 0.0 0.0 0.00 0.00 0.00 61 1014.4
20191121200839 73 0 0.0 0.0 0.00 0.00 0.00 61 1014.4
20191121195939 73 0 0.0 0.0 0.00 0.00 0.00 61 1014.4
20191121195039 73 0 0.0 0.0 0.00 0.00 0.00 61 1014.4
20191121194139 72 0 0.0 0.0 0.00 0.00 0.00 62 1014.4
20191121193239 72 0 0.0 0.0 0.00 0.00 0.00 62 1014.4
20191121192339 72 0 0.0 0.0 0.00 0.00 0.00 61 1014.4
20191121191439 72 0 0.0 0.0 0.00 0.00 0.00 62 1014.4
20191121190539 72 0 0.0 0.0 0.00 0.00 0.00 62 1014.4
20191121185639 72 0 0.0 0.0 0.00 0.00 0.00 61 1014.4
20191121184739 72 0 0.0 0.0 0.00 0.00 0.00 61 1014.8
20191121183839 72 0 0.0 0.0 0.00 0.00 0.00 60 1014.8
20191121182939 73 0 0.0 0.0 0.00 0.00 0.00 60 1014.8
20191121182039 73 0 0.0 0.0 0.00 0.00 0.00 59 1014.8
20191121181139 74 0 0.0 0.0 0.00 0.00 0.00 58 1014.8
20191121180239 74 0 0.0 0.0 0.00 0.00 0.00 59 1015.1
20191121175339 74 0 0.0 0.0 0.00 0.00 0.00 60 1015.1
20191121174439 74 0 0.0 0.0 0.00 0.00 0.00 60 1015.4
20191121173539 74 0 0.0 0.0 0.00 0.00 0.00 59 1015.4
20191121172639 74 0 0.0 0.0 0.00 0.00 0.00 60 1015.4
20191121171739 74 0 0.0 0.0 0.00 0.00 0.00 58 1015.8
20191121170839 76 0 0.0 0.0 0.00 0.00 0.00 57 1015.8
20191121165939 77 0 0.0 0.0 0.00 0.00 0.00 58 1015.8
20191121165039 75 0 0.0 0.0 0.00 0.00 0.00 58 1015.8
20191121164139 75 0 0.0 0.0 0.00 0.00 0.00 59 1016.1
20191121163239 75 0 0.0 0.0 0.00 0.00 0.00 59 1016.1
20191121162339 76 0 0.0 0.0 0.00 0.00 0.00 59 1016.4
20191121161439 78 0 0.0 0.0 0.00 0.00 0.00 57 1016.8
20191121160539 78 0 0.0 0.0 0.00 0.00 0.00 58 1016.4
20191121155639 78 0 0.0 0.0 0.00 0.00 0.00 58 1016.4
20191121154739 75 0 0.0 0.0 0.00 0.00 0.00 65 1016.8
20191121153839 70 0 0.0 0.0 0.00 0.00 0.00 73 1016.8
20191121152939 64 0 0.0 0.0 0.00 0.00 0.00 78 1017.1
20191121152039 63 0 0.0 0.0 0.00 0.00 0.00 80 1017.1
20191121151140 62 0 0.0 0.0 0.00 0.00 0.00 81 1017.1
20191121150239 61 0 0.0 0.0 0.00 0.00 0.00 83 1017.1
20191121145339 60 0 0.0 0.0 0.00 0.00 0.00 84 1017.5
20191121144439 58 0 0.0 0.0 0.00 0.00 0.00 84 1017.5
20191121143539 58 0 0.0 0.0 0.00 0.00 0.00 85 1017.5
20191121142639 56 0 0.0 0.0 0.00 0.00 0.00 85 1017.1
20191121141739 56 0 0.0 0.0 0.00 0.00 0.00 86 1017.1
20191121140839 55 0 0.0 0.0 0.00 0.00 0.00 86 1017.1
20191121135939 53 0 0.0 0.0 0.00 0.00 0.00 87 1016.8
20191121135039 53 0 0.0 0.0 0.00 0.00 0.00 86 1016.8
20191121134139 52 0 0.0 0.0 0.00 0.00 0.00 86 1017.1
20191121133239 51 0 0.0 0.0 0.00 0.00 0.00 87 1016.8
20191121132339 50 0 0.0 0.0 0.00 0.00 0.00 87 1016.8
20191121131439 50 0 0.0 0.0 0.00 0.00 0.00 87 1016.8
20191121130539 49 0 0.0 0.0 0.00 0.00 0.00 86 1016.4
20191121125639 49 0 0.0 0.0 0.00 0.00 0.00 86 1016.4
20191121124739 48 0 0.0 0.0 0.00 0.00 0.00 86 1016.4
20191121123839 48 0 0.0 0.0 0.00 0.00 0.00 86 1016.4
20191121122939 48 0 0.0 0.0 0.00 0.00 0.00 86 1016.1
20191121122039 48 0 0.0 0.0 0.00 0.00 0.00 86 1016.4
20191121121139 48 0 0.0 0.0 0.00 0.00 0.00 86 1016.4
20191121120239 48 0 0.0 0.0 0.00 0.00 0.00 86 1016.1
20191121115339 48 0 0.0 0.0 0.00 0.00 0.00 86 1016.4
20191121114439 48 0 0.0 0.0 0.00 0.00 0.00 86 1016.1
20191121113539 48 0 0.0 0.0 0.00 0.00 0.00 86 1016.1
20191121112639 48 0 0.0 0.0 0.00 0.00 0.00 86 1016.1
20191121111739 48 0 0.0 0.0 0.00 0.00 0.00 85 1015.8
20191121110839 48 0 0.0 0.0 0.00 0.00 0.00 86 1015.8
20191121105939 48 0 0.0 0.0 0.00 0.00 0.00 85 1015.4
20191121105039 48 0 0.0 0.0 0.00 0.00 0.00 85 1015.4
20191121104140 48 0 0.0 0.0 0.00 0.00 0.00 85 1015.4
20191121103239 48 0 0.0 0.0 0.00 0.00 0.00 85 1015.4
20191121102339 48 0 0.0 0.0 0.00 0.00 0.00 85 1015.4
20191121101439 48 0 0.0 0.0 0.00 0.00 0.00 85 1015.4
20191121100539 48 0 0.0 0.0 0.00 0.00 0.00 85 1015.4
20191121095639 48 0 0.0 0.0 0.00 0.00 0.00 85 1015.4
20191121094739 48 0 0.0 0.0 0.00 0.00 0.00 85 1015.1
20191121093839 48 0 0.0 0.0 0.00 0.00 0.00 84 1015.1
20191121092939 48 0 0.0 0.0 0.00 0.00 0.00 84 1015.1
20191121092039 48 0 0.0 0.0 0.00 0.00 0.00 85 1015.1
20191121091139 48 0 0.0 0.0 0.00 0.00 0.00 84 1015.1
20191121090239 48 0 0.0 0.0 0.00 0.00 0.00 84 1015.4
20191121085339 48 0 0.0 0.0 0.00 0.00 0.00 84 1015.4
20191121084439 48 0 0.0 0.0 0.00 0.00 0.00 84 1015.1
20191121083539 48 0 0.0 0.0 0.00 0.00 0.00 84 1015.1
20191121082639 49 0 0.0 0.0 0.00 0.00 0.00 84 1015.1
20191121081739 49 0 0.0 0.0 0.00 0.00 0.00 84 1014.8
20191121080839 49 0 0.0 0.0 0.00 0.00 0.00 84 1014.8
20191121075939 49 0 0.0 0.0 0.00 0.00 0.00 84 1015.1
20191121075039 49 0 0.0 0.0 0.00 0.00 0.00 83 1015.1
20191121074140 49 0 0.0 0.0 0.00 0.00 0.00 83 1015.1
20191121073239 49 0 0.0 0.0 0.00 0.00 0.00 83 1015.1
20191121072339 49 0 0.0 0.0 0.00 0.00 0.00 83 1015.1
20191121071439 49 0 0.0 0.0 0.00 0.00 0.00 82 1015.4
20191121070539 49 0 0.0 0.0 0.00 0.00 0.00 82 1015.4
20191121065639 49 0 0.0 0.0 0.00 0.00 0.00 82 1015.4
20191121064739 50 0 0.0 0.0 0.00 0.00 0.00 82 1015.4
20191121063839 50 0 0.0 0.0 0.00 0.00 0.00 82 1015.1
20191121062939 50 0 0.0 0.0 0.00 0.00 0.00 82 1015.4
20191121062039 51 0 0.0 0.0 0.00 0.00 0.00 82 1015.4
20191121061139 51 0 0.0 0.0 0.00 0.00 0.00 82 1015.1
20191121060239 51 0 0.0 0.0 0.00 0.00 0.00 82 1015.1
20191121055339 51 0 0.0 0.0 0.00 0.00 0.00 82 1015.1
20191121054439 51 0 0.0 0.0 0.00 0.00 0.00 82 1015.1
20191121053539 51 0 0.0 0.0 0.00 0.00 0.00 81 1015.1
20191121052639 52 0 0.0 0.0 0.00 0.00 0.00 82 1015.1
20191121051739 52 0 0.0 0.0 0.00 0.00 0.00 82 1015.1
20191121050839 52 0 0.0 0.0 0.00 0.00 0.00 82 1015.1
20191121045939 52 0 0.0 0.0 0.00 0.00 0.00 82 1015.4
20191121045039 52 0 0.0 0.0 0.00 0.00 0.00 82 1015.4
20191121044139 52 0 0.0 0.0 0.00 0.00 0.00 82 1015.4
20191121043239 53 0 0.0 0.0 0.00 0.00 0.00 82 1015.4
20191121042339 53 0 0.0 0.0 0.00 0.00 0.00 82 1015.4
20191121041439 53 0 0.0 0.0 0.00 0.00 0.00 82 1015.4
20191121040539 53 0 0.0 0.0 0.00 0.00 0.00 81 1015.4
20191121035639 53 0 0.0 0.0 0.00 0.00 0.00 81 1015.4
20191121034739 53 0 0.0 0.0 0.00 0.00 0.00 81 1015.4
20191121033839 53 0 0.0 0.0 0.00 0.00 0.00 80 1015.4
20191121032939 53 0 0.0 0.0 0.00 0.00 0.00 80 1015.4
20191121032039 53 0 0.0 0.0 0.00 0.00 0.00 80 1015.4
20191121031139 54 0 0.0 0.0 0.00 0.00 0.00 80 1015.4
20191121030239 54 0 0.0 0.0 0.00 0.00 0.00 80 1015.4
20191121025340 54 0 0.0 0.0 0.00 0.00 0.00 80 1015.1
20191121024439 54 0 0.0 0.0 0.00 0.00 0.00 80 1015.1
20191121023539 54 0 0.0 0.0 0.00 0.00 0.00 79 1015.4
20191121022639 54 0 0.0 0.0 0.00 0.00 0.00 78 1015.1
20191121021739 54 0 0.0 0.0 0.00 0.00 0.00 78 1015.1
20191121020839 55 0 0.0 0.0 0.00 0.00 0.00 78 1015.1
20191121015939 55 0 0.0 0.0 0.00 0.00 0.00 77 1015.1
20191121015039 55 0 0.0 0.0 0.00 0.00 0.00 77 1014.8
20191121014139 56 0 0.0 0.0 0.00 0.00 0.00 76 1014.8
20191121013239 56 0 0.0 0.0 0.00 0.00 0.00 76 1014.8
20191121012339 56 0 0.0 0.0 0.00 0.00 0.00 75 1014.8
20191121011439 56 0 0.0 0.0 0.00 0.00 0.00 75 1014.4
20191121010539 56 0 0.0 0.0 0.00 0.00 0.00 74 1014.4
20191121005639 56 0 0.0 0.0 0.00 0.00 0.00 74 1014.4
20191121004739 57 0 0.0 0.0 0.00 0.00 0.00 73 1014.4
20191121003839 57 0 0.0 0.0 0.00 0.00 0.00 73 1014.4
20191121002939 57 0 0.0 0.0 0.00 0.00 0.00 73 1014.4
20191121002039 58 0 0.0 0.0 0.00 0.00 0.00 72 1014.1
20191121001139 58 0 0.0 0.0 0.00 0.00 0.00 72 1014.1
20191121000239 58 0 0.0 0.0 0.00 0.00 0.00 71 1013.7
20191120235339 59 0 0.0 0.0 0.00 0.00 0.00 71 1013.7
20191120234439 59 0 0.0 0.0 0.00 0.00 0.00 69 1013.7
20191120233539 59 0 0.0 0.0 0.00 0.00 0.00 69 1013.4
20191120232639 60 0 0.0 0.0 0.00 0.00 0.00 67 1013.4